createdAt,value
2019-05-01T00:01:18.081Z,20.20
2019-05-01T00:03:46.917Z,20.43
2019-05-01T00:06:15.560Z,17.80
2019-05-01T00:08:42.400Z,19.00
2019-05-01T00:11:09.180Z,19.50
2019-05-01T00:13:36.017Z,19.85
2019-05-01T00:16:02.913Z,20.97
2019-05-01T00:18:29.744Z,19.70
2019-05-01T00:20:56.628Z,19.95
2019-05-01T00:23:23.673Z,19.65
2019-05-01T00:25:50.456Z,20.75
2019-05-01T00:28:18.376Z,19.92
2019-05-01T00:30:45.228Z,19.80
2019-05-01T00:33:12.052Z,19.40
2019-05-01T00:35:38.831Z,19.00
2019-05-01T00:38:05.665Z,20.17
2019-05-01T00:40:32.456Z,18.50
2019-05-01T00:42:59.304Z,18.43
2019-05-01T00:45:26.089Z,18.40
2019-05-01T00:47:52.968Z,18.10
2019-05-01T00:50:19.761Z,17.82
2019-05-01T00:52:46.605Z,17.42
2019-05-01T00:55:31.520Z,17.98
2019-05-01T00:58:00.161Z,17.35
2019-05-01T01:00:42.608Z,17.15
2019-05-01T01:02:59.905Z,16.75
2019-05-01T01:05:26.739Z,17.27
2019-05-01T01:07:53.529Z,16.07
2019-05-01T01:10:20.367Z,15.13
2019-05-01T01:12:47.145Z,16.50
2019-05-01T01:15:13.985Z,17.07
2019-05-01T01:17:40.781Z,15.30
2019-05-01T01:20:07.610Z,16.30
2019-05-01T01:22:34.388Z,16.35
2019-05-01T01:25:01.524Z,14.90
2019-05-01T01:27:28.360Z,14.83
2019-05-01T01:29:55.140Z,14.75
2019-05-01T01:32:22.025Z,15.43
2019-05-01T01:34:48.852Z,16.50
2019-05-01T01:37:15.684Z,15.30
2019-05-01T01:39:42.718Z,15.20
2019-05-01T01:42:10.268Z,14.40
2019-05-01T01:44:50.937Z,15.67
2019-05-01T01:47:17.768Z,14.70
2019-05-01T01:49:44.548Z,14.93
2019-05-01T01:52:11.982Z,14.55
2019-05-01T01:54:38.756Z,14.80
2019-05-01T01:57:05.694Z,15.25
2019-05-01T01:59:32.472Z,14.35
2019-05-01T02:02:04.024Z,14.13
2019-05-01T02:04:38.423Z,14.50
2019-05-01T02:07:05.296Z,14.35
2019-05-01T02:09:32.076Z,14.90
2019-05-01T02:11:58.919Z,12.85
2019-05-01T02:14:25.696Z,14.18
2019-05-01T02:16:52.489Z,13.85
2019-05-01T02:19:19.352Z,13.80
2019-05-01T02:21:47.847Z,14.47
2019-05-01T02:24:14.773Z,13.80
2019-05-01T02:26:52.637Z,14.13
2019-05-01T02:29:23.265Z,13.70
2019-05-01T02:31:52.205Z,12.95
2019-05-01T02:34:19.641Z,13.83
2019-05-01T02:36:47.523Z,13.72
2019-05-01T02:39:17.465Z,14.38
2019-05-01T02:41:45.445Z,14.37
2019-05-01T02:44:15.896Z,13.60
2019-05-01T02:46:46.186Z,13.90
2019-05-01T02:49:31.633Z,13.85
2019-05-01T02:51:59.134Z,13.65
2019-05-01T02:54:26.452Z,13.90
2019-05-01T02:56:55.198Z,13.53
2019-05-01T02:59:24.283Z,13.03
2019-05-01T03:01:51.520Z,13.03
2019-05-01T03:04:19.101Z,12.75
2019-05-01T03:06:46.128Z,13.53
2019-05-01T03:09:13.025Z,12.65
2019-05-01T03:11:41.243Z,13.03
2019-05-01T03:14:14.893Z,12.40
2019-05-01T03:16:43.831Z,12.05
2019-05-01T03:19:13.472Z,11.73
2019-05-01T03:21:42.222Z,13.95
2019-05-01T03:24:11.600Z,12.15
2019-05-01T03:26:38.658Z,12.43
2019-05-01T03:29:06.544Z,12.70
2019-05-01T03:31:33.642Z,12.50
2019-05-01T03:34:00.488Z,12.63
2019-05-01T03:36:27.253Z,13.30
2019-05-01T03:38:54.410Z,12.90
2019-05-01T03:41:21.609Z,12.43
2019-05-01T03:43:49.684Z,12.40
2019-05-01T03:46:16.923Z,12.73
2019-05-01T03:48:44.353Z,12.28
2019-05-01T03:51:11.728Z,12.45
2019-05-01T03:53:38.935Z,12.90
2019-05-01T03:56:06.385Z,12.25
2019-05-01T03:58:33.257Z,11.80
2019-05-01T04:03:54.802Z,11.40
2019-05-01T04:06:21.989Z,11.95
2019-05-01T04:08:48.826Z,14.13
2019-05-01T04:11:15.909Z,13.80
2019-05-01T04:13:42.857Z,13.98
2019-05-01T04:16:09.938Z,12.90
2019-05-01T04:18:37.790Z,12.58
2019-05-01T04:21:07.581Z,13.08
2019-05-01T04:23:35.509Z,11.73
2019-05-01T04:26:02.303Z,14.10
2019-05-01T04:28:34.202Z,13.25
2019-05-01T04:31:03.029Z,12.88
2019-05-01T04:33:31.494Z,12.68
2019-05-01T04:36:17.070Z,12.80
2019-05-01T04:38:43.999Z,12.10
2019-05-01T04:41:10.832Z,12.37
2019-05-01T04:43:38.122Z,12.00
2019-05-01T04:46:05.002Z,13.35
2019-05-01T04:48:31.834Z,12.80
2019-05-01T04:50:59.073Z,12.90
2019-05-01T04:53:26.060Z,13.20
2019-05-01T04:55:53.228Z,12.03
2019-05-01T04:58:20.066Z,12.10
2019-05-01T05:00:46.893Z,11.70
2019-05-01T05:03:15.476Z,11.33
2019-05-01T05:05:43.063Z,11.05
2019-05-01T05:08:09.940Z,10.58
2019-05-01T05:10:37.167Z,11.95
2019-05-01T05:13:22.629Z,10.70
2019-05-01T05:15:51.221Z,10.20
2019-05-01T05:18:18.349Z,11.60
2019-05-01T05:20:45.324Z,11.60
2019-05-01T05:23:12.269Z,11.57
2019-05-01T05:25:39.926Z,12.65
2019-05-01T05:28:06.719Z,11.43
2019-05-01T05:30:35.461Z,11.85
2019-05-01T05:33:17.158Z,13.48
2019-05-01T05:35:36.669Z,13.32
2019-05-01T05:38:09.909Z,12.80
2019-05-01T05:40:37.532Z,12.10
2019-05-01T05:43:04.460Z,12.95
2019-05-01T05:45:33.331Z,13.00
2019-05-01T05:48:00.169Z,12.10
2019-05-01T05:50:33.241Z,13.30
2019-05-01T05:53:03.908Z,13.08
2019-05-01T05:55:34.700Z,12.90
2019-05-01T05:58:04.844Z,13.60
2019-05-01T06:00:52.090Z,13.40
2019-05-01T06:03:39.316Z,13.78
2019-05-01T06:06:24.672Z,13.30
2019-05-01T06:08:53.909Z,13.72
2019-05-01T06:11:29.640Z,14.53
2019-05-01T06:14:16.576Z,14.00
2019-05-01T06:16:52.138Z,14.53
2019-05-01T06:19:19.324Z,13.77
2019-05-01T06:22:10.223Z,13.60
2019-05-01T06:24:40.493Z,14.40
2019-05-01T06:27:08.883Z,14.68
2019-05-01T06:29:37.301Z,13.85
2019-05-01T06:32:04.534Z,15.32
2019-05-01T06:34:31.444Z,15.28
2019-05-01T06:36:58.611Z,14.43
2019-05-01T06:39:25.535Z,16.00
2019-05-01T06:41:52.865Z,14.53
2019-05-01T06:44:33.563Z,15.18
2019-05-01T06:47:10.070Z,15.60
2019-05-01T06:49:48.693Z,14.70
2019-05-01T06:52:20.164Z,15.35
2019-05-01T06:54:47.820Z,15.20
2019-05-01T06:57:15.704Z,15.05
2019-05-01T06:59:42.993Z,15.03
2019-05-01T07:02:15.876Z,15.10
2019-05-01T07:04:44.561Z,15.63
2019-05-01T07:07:24.698Z,16.37
2019-05-01T07:09:44.241Z,14.40
2019-05-01T07:12:13.337Z,15.20
2019-05-01T07:14:40.524Z,15.80
2019-05-01T07:17:08.881Z,13.93
2019-05-01T07:19:56.489Z,14.28
2019-05-01T07:22:23.692Z,14.90
2019-05-01T07:24:50.917Z,14.60
2019-05-01T07:27:18.831Z,14.90
2019-05-01T07:29:48.153Z,15.25
2019-05-01T07:32:15.181Z,14.38
2019-05-01T07:34:42.225Z,14.90
2019-05-01T07:37:09.037Z,13.85
2019-05-01T07:39:36.181Z,14.10
2019-05-01T07:42:21.510Z,14.30
2019-05-01T07:44:50.492Z,13.83
2019-05-01T07:47:30.592Z,14.85
2019-05-01T07:50:00.184Z,13.22
2019-05-01T07:52:27.780Z,14.30
2019-05-01T07:54:55.081Z,14.87
2019-05-01T07:57:23.126Z,14.00
2019-05-01T07:59:51.040Z,14.15
2019-05-01T08:02:17.826Z,14.75
2019-05-01T08:04:44.664Z,14.38
2019-05-01T08:07:11.450Z,15.78
2019-05-01T08:09:38.285Z,13.70
2019-05-01T08:12:05.125Z,14.85
2019-05-01T08:14:31.925Z,15.03
2019-05-01T08:16:58.744Z,14.85
2019-05-01T08:19:29.852Z,13.27
2019-05-01T08:22:01.669Z,14.03
2019-05-01T08:24:27.096Z,13.72
2019-05-01T08:26:53.952Z,13.90
2019-05-01T08:29:28.369Z,14.50
2019-05-01T08:32:09.320Z,14.73
2019-05-01T08:34:48.436Z,14.75
2019-05-01T08:37:06.677Z,16.20
2019-05-01T08:39:34.048Z,16.73
2019-05-01T08:42:03.152Z,16.30
2019-05-01T08:44:33.831Z,18.30
2019-05-01T08:47:11.053Z,17.92
2019-05-01T08:49:50.664Z,18.00
2019-05-01T08:52:17.164Z,17.42
2019-05-01T08:54:44.021Z,17.10
2019-05-01T08:57:10.813Z,17.17
2019-05-01T08:59:37.592Z,16.57
2019-05-01T09:02:09.295Z,15.03
2019-05-01T09:04:33.169Z,14.73
2019-05-01T09:06:59.984Z,15.72
2019-05-01T09:09:26.776Z,16.65
2019-05-01T09:11:54.721Z,16.30
2019-05-01T09:14:21.684Z,13.20
2019-05-01T09:16:48.545Z,13.60
2019-05-01T09:19:16.154Z,13.58
2019-05-01T09:21:42.936Z,14.90
2019-05-01T09:24:09.725Z,14.65
2019-05-01T09:26:45.295Z,13.38
2019-05-01T09:29:16.117Z,13.58
2019-05-01T09:31:42.965Z,13.87
2019-05-01T09:34:13.869Z,12.45
2019-05-01T09:36:38.377Z,11.60
2019-05-01T09:39:08.081Z,11.85
2019-05-01T09:41:38.497Z,12.85
2019-05-01T09:44:05.710Z,12.43
2019-05-01T09:46:32.565Z,10.70
2019-05-01T09:48:59.505Z,11.60
2019-05-01T09:51:47.504Z,13.20
2019-05-01T09:54:19.440Z,13.93
2019-05-01T09:56:46.277Z,13.00
2019-05-01T09:59:17.371Z,12.00
2019-05-01T10:01:41.799Z,13.45
2019-05-01T10:04:08.653Z,13.45
2019-05-01T10:06:35.428Z,12.03
2019-05-01T10:09:05.900Z,11.27
2019-05-01T10:11:35.874Z,11.12
2019-05-01T10:14:03.882Z,11.95
2019-05-01T10:16:30.033Z,11.83
2019-05-01T10:18:56.952Z,11.30
2019-05-01T10:21:27.284Z,11.78
2019-05-01T10:23:52.914Z,12.75
2019-05-01T10:26:24.081Z,12.43
2019-05-01T10:29:07.310Z,11.90
2019-05-01T10:31:42.858Z,12.10
2019-05-01T10:34:09.215Z,12.55
2019-05-01T10:36:37.868Z,11.60
2019-05-01T10:39:06.824Z,10.78
2019-05-01T10:41:33.683Z,12.70
2019-05-01T10:44:00.500Z,12.63
2019-05-01T10:46:27.288Z,12.15
2019-05-01T10:48:57.032Z,11.20
2019-05-01T10:51:22.773Z,10.48
2019-05-01T10:53:49.649Z,11.40
2019-05-01T10:56:16.537Z,11.00
2019-05-01T10:58:43.488Z,10.88
2019-05-01T11:01:12.053Z,9.43
2019-05-01T11:03:39.541Z,9.98
2019-05-01T11:06:06.943Z,10.38
2019-05-01T11:08:34.095Z,8.75
2019-05-01T11:11:01.164Z,11.53
2019-05-01T11:13:28.134Z,10.63
2019-05-01T11:15:55.007Z,10.55
2019-05-01T11:18:21.857Z,11.05
2019-05-01T11:20:48.857Z,10.60
2019-05-01T11:23:15.932Z,11.40
2019-05-01T11:25:44.674Z,10.15
2019-05-01T11:28:11.932Z,11.25
2019-05-01T11:30:38.897Z,11.30
2019-05-01T11:33:19.711Z,12.23
2019-05-01T11:35:50.851Z,14.10
2019-05-01T11:38:25.703Z,13.72
2019-05-01T11:41:09.963Z,12.65
2019-05-01T11:43:36.762Z,13.22
2019-05-01T11:46:03.732Z,10.75
2019-05-01T11:48:32.029Z,12.80
2019-05-01T11:50:59.000Z,11.08
2019-05-01T11:53:26.188Z,10.75
2019-05-01T11:55:53.189Z,10.45
2019-05-01T11:58:20.117Z,11.20
2019-05-01T12:00:48.693Z,11.25
2019-05-01T12:03:15.656Z,12.10
2019-05-01T12:05:42.843Z,11.97
2019-05-01T12:08:10.187Z,11.53
2019-05-01T12:10:37.275Z,12.77
2019-05-01T12:13:04.241Z,11.60
2019-05-01T12:15:31.175Z,10.78
2019-05-01T12:17:58.400Z,10.90
2019-05-01T12:20:25.267Z,10.32
2019-05-01T12:22:52.205Z,11.75
2019-05-01T12:25:19.157Z,12.90
2019-05-01T12:27:46.004Z,13.70
2019-05-01T12:30:15.310Z,14.53
2019-05-01T12:32:42.244Z,15.25
2019-05-01T12:35:09.366Z,13.43
2019-05-01T12:37:38.238Z,14.50
2019-05-01T12:40:09.824Z,15.18
2019-05-01T12:42:37.009Z,15.70
2019-05-01T12:45:09.707Z,13.30
2019-05-01T12:47:50.023Z,15.58
2019-05-01T12:50:17.195Z,13.10
2019-05-01T12:52:46.028Z,13.60
2019-05-01T12:55:20.542Z,13.03
2019-05-01T12:57:49.320Z,12.60
2019-05-01T13:00:17.978Z,11.43
2019-05-01T13:02:45.332Z,12.05
2019-05-01T13:05:12.175Z,11.33
2019-05-01T13:07:39.258Z,13.53
2019-05-01T13:10:07.164Z,13.30
2019-05-01T13:12:34.135Z,14.43
2019-05-01T13:15:01.066Z,14.25
2019-05-01T13:17:27.976Z,13.80
2019-05-01T13:19:54.809Z,14.43
2019-05-01T13:22:21.656Z,13.40
2019-05-01T13:24:51.390Z,13.03
2019-05-01T13:27:23.117Z,13.62
2019-05-01T13:29:54.526Z,13.70
2019-05-01T13:32:31.961Z,15.28
2019-05-01T13:34:58.721Z,13.65
2019-05-01T13:37:25.506Z,14.70
2019-05-01T13:39:52.549Z,12.85
2019-05-01T13:42:19.388Z,14.43
2019-05-01T13:44:46.354Z,12.20
2019-05-01T13:47:13.287Z,14.50
2019-05-01T13:49:40.179Z,12.80
2019-05-01T13:52:07.221Z,13.18
2019-05-01T13:54:34.087Z,13.93
2019-05-01T13:57:01.031Z,12.27
2019-05-01T13:59:27.892Z,11.90
2019-05-01T14:01:54.745Z,12.30
2019-05-01T14:04:22.810Z,12.47
2019-05-01T14:06:49.654Z,12.70
2019-05-01T14:09:18.465Z,12.47
2019-05-01T14:11:45.302Z,13.28
2019-05-01T14:14:12.367Z,13.20
2019-05-01T14:16:39.437Z,13.70
2019-05-01T14:19:06.517Z,13.43
2019-05-01T14:21:37.504Z,13.65
2019-05-01T14:24:08.821Z,11.53
2019-05-01T14:26:44.372Z,10.23
2019-05-01T14:29:11.353Z,12.58
2019-05-01T14:31:38.204Z,13.25
2019-05-01T14:34:05.124Z,12.73
2019-05-01T14:36:31.984Z,14.78
2019-05-01T14:38:58.930Z,14.70
2019-05-01T14:41:25.825Z,12.43
2019-05-01T14:43:52.729Z,11.33
2019-05-01T14:46:19.634Z,12.47
2019-05-01T14:48:46.540Z,13.38
2019-05-01T14:51:13.443Z,12.37
2019-05-01T14:53:40.285Z,11.00
2019-05-01T14:56:07.809Z,11.90
2019-05-01T14:58:34.597Z,11.88
2019-05-01T15:01:01.490Z,12.28
2019-05-01T15:03:28.282Z,13.68
2019-05-01T15:05:55.191Z,12.18
2019-05-01T15:08:22.068Z,13.40
2019-05-01T15:10:54.882Z,14.40
2019-05-01T15:13:23.558Z,12.20
2019-05-01T15:16:04.300Z,10.53
2019-05-01T15:18:35.713Z,11.05
2019-05-01T15:21:02.734Z,11.75
2019-05-01T15:23:29.596Z,11.22
2019-05-01T15:25:56.555Z,12.03
2019-05-01T15:28:23.498Z,8.80
2019-05-01T15:30:51.386Z,9.50
2019-05-01T15:33:18.210Z,9.40
2019-05-01T15:35:45.061Z,8.40
2019-05-01T15:38:11.966Z,9.80
2019-05-01T15:40:46.401Z,11.63
2019-05-01T15:43:26.860Z,10.45
2019-05-01T15:45:53.700Z,11.78
2019-05-01T15:48:21.025Z,9.98
2019-05-01T15:50:48.413Z,12.00
2019-05-01T15:53:15.252Z,11.80
2019-05-01T15:55:42.038Z,11.05
2019-05-01T15:58:08.853Z,10.45
2019-05-01T16:00:35.688Z,12.60
2019-05-01T16:03:02.465Z,12.58
2019-05-01T16:05:29.279Z,12.43
2019-05-01T16:08:08.980Z,12.03
2019-05-01T16:10:26.512Z,11.88
2019-05-01T16:12:56.199Z,12.00
2019-05-01T16:15:28.040Z,11.93
2019-05-01T16:17:55.325Z,11.88
2019-05-01T16:20:22.212Z,13.35
2019-05-01T16:22:49.008Z,11.35
2019-05-01T16:25:15.957Z,11.03
2019-05-01T16:27:42.755Z,8.95
2019-05-01T16:30:10.096Z,8.70
2019-05-01T16:32:36.880Z,9.53
2019-05-01T16:35:04.830Z,11.70
2019-05-01T16:37:31.609Z,12.88
2019-05-01T16:40:00.240Z,10.63
2019-05-01T16:42:28.833Z,9.88
2019-05-01T16:44:55.729Z,11.10
2019-05-01T16:47:22.570Z,11.08
2019-05-01T16:49:49.413Z,11.33
2019-05-01T16:52:18.006Z,10.28
2019-05-01T16:54:44.788Z,11.45
2019-05-01T16:57:13.244Z,10.95
2019-05-01T16:59:40.041Z,11.43
2019-05-01T17:02:14.474Z,12.40
2019-05-01T17:04:48.625Z,13.38
2019-05-01T17:07:33.869Z,10.85
2019-05-01T17:10:18.189Z,8.90
2019-05-01T17:12:49.365Z,9.88
2019-05-01T17:15:18.145Z,11.80
2019-05-01T17:17:45.500Z,11.15
2019-05-01T17:20:12.880Z,11.28
2019-05-01T17:22:39.750Z,13.22
2019-05-01T17:25:06.916Z,13.20
2019-05-01T17:27:33.712Z,10.40
2019-05-01T17:30:00.557Z,12.27
2019-05-01T17:32:27.397Z,10.90
2019-05-01T17:34:54.233Z,9.95
2019-05-01T17:37:21.109Z,12.25
2019-05-01T17:39:47.899Z,12.15
2019-05-01T17:42:14.725Z,12.23
2019-05-01T17:44:41.552Z,12.73
2019-05-01T17:47:08.344Z,11.28
2019-05-01T17:49:35.181Z,10.82
2019-05-01T17:52:02.041Z,12.30
2019-05-01T17:54:28.824Z,12.20
2019-05-01T17:56:55.849Z,11.60
2019-05-01T17:59:22.777Z,11.90
2019-05-01T18:01:57.128Z,11.33
2019-05-01T18:04:31.794Z,8.95
2019-05-01T18:06:58.830Z,11.20
2019-05-01T18:09:25.718Z,12.03
2019-05-01T18:11:53.608Z,12.00
2019-05-01T18:14:20.705Z,12.47
2019-05-01T18:16:47.603Z,12.00
2019-05-01T18:19:14.800Z,11.50
2019-05-01T18:21:46.735Z,10.20
2019-05-01T18:24:18.999Z,10.30
2019-05-01T18:26:52.365Z,11.30
2019-05-01T18:29:21.012Z,10.55
2019-05-01T18:31:47.796Z,11.05
2019-05-01T18:34:14.732Z,12.58
2019-05-01T18:36:55.031Z,12.13
2019-05-01T18:39:28.846Z,10.93
2019-05-01T18:42:01.219Z,11.97
2019-05-01T18:44:28.191Z,13.88
2019-05-01T18:46:55.198Z,13.00
2019-05-01T18:49:22.196Z,12.70
2019-05-01T18:51:49.345Z,12.70
2019-05-01T18:54:16.341Z,13.40
2019-05-01T18:56:43.145Z,13.10
2019-05-01T18:59:09.990Z,13.28
2019-05-01T19:01:36.803Z,12.88
2019-05-01T19:04:03.633Z,12.28
2019-05-01T19:06:40.533Z,13.08
2019-05-01T19:08:59.165Z,12.75
2019-05-01T19:11:26.021Z,13.88
2019-05-01T19:13:54.156Z,13.60
2019-05-01T19:16:21.020Z,12.40
2019-05-01T19:18:47.753Z,13.50
2019-05-01T19:21:15.800Z,12.80
2019-05-01T19:23:42.621Z,14.47
2019-05-01T19:26:12.248Z,14.20
2019-05-01T19:28:38.962Z,13.30
2019-05-01T19:31:06.102Z,12.95
2019-05-01T19:33:34.850Z,13.32
2019-05-01T19:36:02.708Z,12.03
2019-05-01T19:38:34.902Z,10.65
2019-05-01T19:41:03.497Z,10.20
2019-05-01T19:43:28.536Z,10.40
2019-05-01T19:45:56.057Z,10.00
2019-05-01T19:48:22.802Z,12.15
2019-05-01T19:50:49.692Z,10.18
2019-05-01T19:53:16.469Z,10.50
2019-05-01T19:55:44.873Z,11.50
2019-05-01T19:58:13.005Z,10.00
2019-05-01T20:00:49.414Z,9.60
2019-05-01T20:03:16.442Z,9.67
2019-05-01T20:05:43.526Z,9.18
2019-05-01T20:08:10.468Z,9.05
2019-05-01T20:10:37.830Z,8.60
2019-05-01T20:13:07.048Z,8.60
2019-05-01T20:15:33.563Z,8.83
2019-05-01T20:18:00.511Z,9.05
2019-05-01T20:20:29.058Z,8.65
2019-05-01T20:22:55.984Z,8.40
2019-05-01T20:25:24.472Z,9.73
2019-05-01T20:27:53.196Z,10.68
2019-05-01T20:30:20.386Z,10.80
2019-05-01T20:32:47.328Z,11.55
2019-05-01T20:35:14.296Z,13.00
2019-05-01T20:37:41.164Z,11.48
2019-05-01T20:40:11.340Z,10.83
2019-05-01T20:42:37.043Z,10.15
2019-05-01T20:45:12.674Z,10.18
2019-05-01T20:47:35.482Z,10.50
2019-05-01T20:50:05.198Z,10.05
2019-05-01T20:52:32.141Z,10.80
2019-05-01T20:54:59.074Z,10.93
2019-05-01T20:57:27.764Z,11.77
2019-05-01T20:59:54.724Z,11.50
2019-05-01T21:02:21.644Z,11.75
2019-05-01T21:04:56.104Z,11.50
2019-05-01T21:07:24.836Z,10.23
2019-05-01T21:09:57.875Z,9.73
2019-05-01T21:12:22.103Z,10.07
2019-05-01T21:14:49.617Z,11.40
2019-05-01T21:17:16.951Z,10.72
2019-05-01T21:19:44.136Z,11.00
2019-05-01T21:22:11.102Z,10.65
2019-05-01T21:24:37.950Z,10.55
2019-05-01T21:27:05.155Z,10.83
2019-05-01T21:29:31.957Z,10.82
2019-05-01T21:31:58.825Z,9.85
2019-05-01T21:34:25.653Z,10.35
2019-05-01T21:36:53.930Z,9.65
2019-05-01T21:39:22.708Z,10.65
2019-05-01T21:41:49.516Z,10.55
2019-05-01T21:44:16.310Z,9.48
2019-05-01T21:46:43.272Z,10.40
2019-05-01T21:49:10.131Z,9.85
2019-05-01T21:51:37.062Z,9.70
2019-05-01T21:54:05.600Z,9.95
2019-05-01T21:56:32.469Z,9.58
2019-05-01T21:58:59.555Z,9.10
2019-05-01T22:01:30.192Z,9.48
2019-05-01T22:03:57.043Z,8.90
2019-05-01T22:06:25.028Z,8.55
2019-05-01T22:08:51.864Z,8.90
2019-05-01T22:11:18.695Z,8.60
2019-05-01T22:13:45.475Z,8.83
2019-05-01T22:16:23.737Z,9.55
2019-05-01T22:19:01.512Z,8.08
2019-05-01T22:21:30.209Z,8.68
2019-05-01T22:24:11.964Z,9.00
2019-05-01T22:26:40.713Z,10.30
2019-05-01T22:29:09.300Z,8.05
2019-05-01T22:31:43.914Z,8.90
2019-05-01T22:34:18.594Z,8.90
2019-05-01T22:36:45.429Z,11.40
2019-05-01T22:39:12.508Z,11.50
2019-05-01T22:41:39.360Z,10.70
2019-05-01T22:44:06.156Z,11.47
2019-05-01T22:46:33.855Z,11.38
2019-05-01T22:49:01.628Z,10.23
2019-05-01T22:51:28.471Z,10.70
2019-05-01T22:53:55.310Z,9.40
2019-05-01T22:56:22.095Z,9.03
2019-05-01T22:58:48.929Z,8.70
2019-05-01T23:01:18.226Z,8.85
2019-05-01T23:03:46.268Z,9.08
2019-05-01T23:06:13.252Z,8.63
2019-05-01T23:08:40.200Z,9.10
2019-05-01T23:11:19.041Z,8.88
2019-05-01T23:13:36.408Z,8.70
2019-05-01T23:16:03.733Z,7.15
2019-05-01T23:18:30.568Z,6.70
2019-05-01T23:20:57.365Z,8.00
2019-05-01T23:23:24.128Z,6.90
2019-05-01T23:25:50.969Z,7.97
2019-05-01T23:28:17.748Z,7.80
2019-05-01T23:30:44.622Z,6.95
2019-05-01T23:33:11.478Z,6.60
2019-05-01T23:35:39.417Z,6.12
2019-05-01T23:38:06.253Z,6.28
2019-05-01T23:40:33.041Z,6.08
2019-05-01T23:42:59.889Z,5.70
2019-05-01T23:45:26.676Z,5.50
2019-05-01T23:47:53.452Z,5.90
2019-05-01T23:50:20.316Z,6.20
2019-05-01T23:52:47.081Z,5.65
2019-05-01T23:55:14.400Z,6.07
2019-05-01T23:57:41.679Z,6.17
